sensor_id;sensor_type;location;lat;lon;timestamp;P1;durP1;ratioP1;P2;durP2;ratioP2
13002;SDS011;6566;57.702;11.984;2022-11-20T00:00:00;1.52;;;1.15;;
13002;SDS011;6566;57.702;11.984;2022-11-20T00:02:25;1.13;;;0.90;;
13002;SDS011;6566;57.702;11.984;2022-11-20T00:04:51;1.92;;;1.00;;
13002;SDS011;6566;57.702;11.984;2022-11-20T00:07:16;1.10;;;1.00;;
13002;SDS011;6566;57.702;11.984;2022-11-20T00:09:41;1.17;;;0.85;;
13002;SDS011;6566;57.702;11.984;2022-11-20T00:12:06;2.35;;;0.90;;
13002;SDS011;6566;57.702;11.984;2022-11-20T00:14:32;1.88;;;1.00;;
13002;SDS011;6566;57.702;11.984;2022-11-20T00:16:57;1.98;;;1.10;;
13002;SDS011;6566;57.702;11.984;2022-11-20T00:19:22;1.55;;;1.08;;
13002;SDS011;6566;57.702;11.984;2022-11-20T00:21:48;1.65;;;0.90;;
13002;SDS011;6566;57.702;11.984;2022-11-20T00:24:16;1.20;;;1.10;;
13002;SDS011;6566;57.702;11.984;2022-11-20T00:26:41;1.10;;;1.00;;
13002;SDS011;6566;57.702;11.984;2022-11-20T00:29:08;2.75;;;1.10;;
13002;SDS011;6566;57.702;11.984;2022-11-20T00:31:34;1.38;;;1.02;;
13002;SDS011;6566;57.702;11.984;2022-11-20T00:34:00;1.48;;;1.30;;
13002;SDS011;6566;57.702;11.984;2022-11-20T00:36:26;2.35;;;1.10;;
13002;SDS011;6566;57.702;11.984;2022-11-20T00:38:52;1.00;;;0.90;;
13002;SDS011;6566;57.702;11.984;2022-11-20T00:41:18;1.10;;;1.00;;
13002;SDS011;6566;57.702;11.984;2022-11-20T00:43:43;1.05;;;0.95;;
13002;SDS011;6566;57.702;11.984;2022-11-20T00:46:09;1.95;;;1.10;;
13002;SDS011;6566;57.702;11.984;2022-11-20T00:48:35;1.42;;;1.10;;
13002;SDS011;6566;57.702;11.984;2022-11-20T00:51:00;0.95;;;0.90;;
13002;SDS011;6566;57.702;11.984;2022-11-20T00:53:26;1.20;;;1.10;;
13002;SDS011;6566;57.702;11.984;2022-11-20T00:55:58;1.30;;;1.00;;
13002;SDS011;6566;57.702;11.984;2022-11-20T00:58:24;1.80;;;1.00;;
13002;SDS011;6566;57.702;11.984;2022-11-20T01:00:50;2.38;;;1.10;;
13002;SDS011;6566;57.702;11.984;2022-11-20T01:03:16;3.63;;;1.00;;
13002;SDS011;6566;57.702;11.984;2022-11-20T01:05:42;1.95;;;0.93;;
13002;SDS011;6566;57.702;11.984;2022-11-20T01:08:07;1.42;;;1.00;;
13002;SDS011;6566;57.702;11.984;2022-11-20T01:10:33;1.08;;;0.93;;
13002;SDS011;6566;57.702;11.984;2022-11-20T01:12:58;1.48;;;1.00;;
13002;SDS011;6566;57.702;11.984;2022-11-20T01:15:42;0.88;;;0.88;;
13002;SDS011;6566;57.702;11.984;2022-11-20T01:18:07;1.23;;;0.98;;
13002;SDS011;6566;57.702;11.984;2022-11-20T01:20:35;1.48;;;1.15;;
13002;SDS011;6566;57.702;11.984;2022-11-20T01:23:01;0.98;;;0.88;;
13002;SDS011;6566;57.702;11.984;2022-11-20T01:25:26;1.33;;;1.10;;
13002;SDS011;6566;57.702;11.984;2022-11-20T01:27:52;0.80;;;0.80;;
13002;SDS011;6566;57.702;11.984;2022-11-20T01:30:17;1.42;;;1.17;;
13002;SDS011;6566;57.702;11.984;2022-11-20T01:32:42;1.92;;;0.90;;
13002;SDS011;6566;57.702;11.984;2022-11-20T01:35:07;1.85;;;1.08;;
13002;SDS011;6566;57.702;11.984;2022-11-20T01:37:34;1.08;;;0.98;;
13002;SDS011;6566;57.702;11.984;2022-11-20T01:40:00;1.17;;;0.95;;
13002;SDS011;6566;57.702;11.984;2022-11-20T01:42:25;1.25;;;0.90;;
13002;SDS011;6566;57.702;11.984;2022-11-20T01:47:53;2.15;;;1.20;;
13002;SDS011;6566;57.702;11.984;2022-11-20T01:50:22;1.10;;;0.90;;
13002;SDS011;6566;57.702;11.984;2022-11-20T01:55:15;2.10;;;1.00;;
13002;SDS011;6566;57.702;11.984;2022-11-20T01:57:42;1.77;;;1.20;;
13002;SDS011;6566;57.702;11.984;2022-11-20T02:00:10;1.27;;;1.10;;
13002;SDS011;6566;57.702;11.984;2022-11-20T02:02:36;0.95;;;0.95;;
13002;SDS011;6566;57.702;11.984;2022-11-20T02:05:04;3.58;;;1.27;;
13002;SDS011;6566;57.702;11.984;2022-11-20T02:07:33;1.20;;;1.10;;
13002;SDS011;6566;57.702;11.984;2022-11-20T02:09:58;0.82;;;0.82;;
13002;SDS011;6566;57.702;11.984;2022-11-20T02:12:23;1.67;;;1.10;;
13002;SDS011;6566;57.702;11.984;2022-11-20T02:15:07;2.55;;;1.00;;
13002;SDS011;6566;57.702;11.984;2022-11-20T02:17:33;1.58;;;1.00;;
13002;SDS011;6566;57.702;11.984;2022-11-20T02:19:58;2.67;;;1.40;;
13002;SDS011;6566;57.702;11.984;2022-11-20T02:22:28;1.45;;;1.15;;
13002;SDS011;6566;57.702;11.984;2022-11-20T02:24:56;1.80;;;1.13;;
13002;SDS011;6566;57.702;11.984;2022-11-20T02:27:22;1.13;;;1.10;;
13002;SDS011;6566;57.702;11.984;2022-11-20T02:34:44;2.10;;;1.20;;
13002;SDS011;6566;57.702;11.984;2022-11-20T02:37:09;2.20;;;1.25;;
13002;SDS011;6566;57.702;11.984;2022-11-20T02:39:34;1.13;;;1.02;;
13002;SDS011;6566;57.702;11.984;2022-11-20T02:42:00;1.30;;;1.10;;
13002;SDS011;6566;57.702;11.984;2022-11-20T02:44:26;2.53;;;1.10;;
13002;SDS011;6566;57.702;11.984;2022-11-20T02:46:51;2.00;;;1.10;;
13002;SDS011;6566;57.702;11.984;2022-11-20T02:49:16;1.10;;;1.00;;
13002;SDS011;6566;57.702;11.984;2022-11-20T02:51:41;1.13;;;1.10;;
13002;SDS011;6566;57.702;11.984;2022-11-20T02:54:07;2.22;;;1.15;;
13002;SDS011;6566;57.702;11.984;2022-11-20T02:56:32;1.75;;;1.17;;
13002;SDS011;6566;57.702;11.984;2022-11-20T02:58:57;1.20;;;1.08;;
13002;SDS011;6566;57.702;11.984;2022-11-20T03:01:22;2.63;;;1.17;;
13002;SDS011;6566;57.702;11.984;2022-11-20T03:03:48;3.17;;;1.17;;
13002;SDS011;6566;57.702;11.984;2022-11-20T03:06:17;2.10;;;1.13;;
13002;SDS011;6566;57.702;11.984;2022-11-20T03:08:42;1.15;;;1.05;;
13002;SDS011;6566;57.702;11.984;2022-11-20T03:11:08;1.85;;;1.30;;
13002;SDS011;6566;57.702;11.984;2022-11-20T03:13:33;3.70;;;1.10;;
13002;SDS011;6566;57.702;11.984;2022-11-20T03:16:04;1.23;;;1.13;;
13002;SDS011;6566;57.702;11.984;2022-11-20T03:18:29;2.83;;;1.30;;
13002;SDS011;6566;57.702;11.984;2022-11-20T03:20:58;1.13;;;1.02;;
13002;SDS011;6566;57.702;11.984;2022-11-20T03:23:23;1.27;;;1.17;;
13002;SDS011;6566;57.702;11.984;2022-11-20T03:25:49;2.55;;;1.00;;
13002;SDS011;6566;57.702;11.984;2022-11-20T03:28:14;1.38;;;1.10;;
13002;SDS011;6566;57.702;11.984;2022-11-20T03:30:39;1.30;;;1.20;;
13002;SDS011;6566;57.702;11.984;2022-11-20T03:33:05;2.60;;;1.42;;
13002;SDS011;6566;57.702;11.984;2022-11-20T03:35:30;1.25;;;1.02;;
13002;SDS011;6566;57.702;11.984;2022-11-20T03:37:55;1.38;;;1.23;;
13002;SDS011;6566;57.702;11.984;2022-11-20T03:40:22;1.40;;;1.30;;
13002;SDS011;6566;57.702;11.984;2022-11-20T03:42:47;1.60;;;1.20;;
13002;SDS011;6566;57.702;11.984;2022-11-20T03:45:13;1.70;;;1.30;;
13002;SDS011;6566;57.702;11.984;2022-11-20T03:47:39;2.50;;;1.50;;
13002;SDS011;6566;57.702;11.984;2022-11-20T03:50:04;2.78;;;1.42;;
13002;SDS011;6566;57.702;11.984;2022-11-20T03:52:29;1.30;;;1.20;;
13002;SDS011;6566;57.702;11.984;2022-11-20T03:54:55;1.60;;;1.50;;
13002;SDS011;6566;57.702;11.984;2022-11-20T03:57:20;1.88;;;1.42;;
13002;SDS011;6566;57.702;11.984;2022-11-20T03:59:45;1.40;;;1.30;;
13002;SDS011;6566;57.702;11.984;2022-11-20T04:02:10;1.95;;;1.58;;
13002;SDS011;6566;57.702;11.984;2022-11-20T04:04:36;1.88;;;1.65;;
13002;SDS011;6566;57.702;11.984;2022-11-20T04:07:01;1.30;;;1.20;;
13002;SDS011;6566;57.702;11.984;2022-11-20T04:09:27;2.38;;;1.75;;
13002;SDS011;6566;57.702;11.984;2022-11-20T04:11:52;2.10;;;1.48;;
13002;SDS011;6566;57.702;11.984;2022-11-20T04:14:17;2.38;;;1.40;;
13002;SDS011;6566;57.702;11.984;2022-11-20T04:16:42;1.60;;;1.50;;
13002;SDS011;6566;57.702;11.984;2022-11-20T04:19:12;1.90;;;1.50;;
13002;SDS011;6566;57.702;11.984;2022-11-20T04:21:37;1.80;;;1.48;;
13002;SDS011;6566;57.702;11.984;2022-11-20T04:24:03;2.78;;;1.63;;
13002;SDS011;6566;57.702;11.984;2022-11-20T04:26:28;2.85;;;1.48;;
13002;SDS011;6566;57.702;11.984;2022-11-20T04:28:54;3.38;;;1.55;;
13002;SDS011;6566;57.702;11.984;2022-11-20T04:31:20;2.42;;;1.60;;
13002;SDS011;6566;57.702;11.984;2022-11-20T04:33:45;2.55;;;1.50;;
13002;SDS011;6566;57.702;11.984;2022-11-20T04:36:12;1.85;;;1.48;;
13002;SDS011;6566;57.702;11.984;2022-11-20T04:38:37;2.08;;;1.55;;
13002;SDS011;6566;57.702;11.984;2022-11-20T04:41:04;1.70;;;1.60;;
13002;SDS011;6566;57.702;11.984;2022-11-20T04:43:30;1.50;;;1.40;;
13002;SDS011;6566;57.702;11.984;2022-11-20T04:45:56;1.70;;;1.60;;
13002;SDS011;6566;57.702;11.984;2022-11-20T04:48:21;3.38;;;1.60;;
13002;SDS011;6566;57.702;11.984;2022-11-20T04:50:46;2.45;;;1.70;;
13002;SDS011;6566;57.702;11.984;2022-11-20T04:53:12;2.28;;;1.80;;
13002;SDS011;6566;57.702;11.984;2022-11-20T04:55:37;2.15;;;1.73;;
13002;SDS011;6566;57.702;11.984;2022-11-20T04:58:02;5.10;;;1.88;;
13002;SDS011;6566;57.702;11.984;2022-11-20T05:00:27;2.33;;;1.63;;
13002;SDS011;6566;57.702;11.984;2022-11-20T05:02:53;2.08;;;1.80;;
13002;SDS011;6566;57.702;11.984;2022-11-20T05:05:18;3.50;;;1.63;;
13002;SDS011;6566;57.702;11.984;2022-11-20T05:07:43;1.52;;;1.38;;
13002;SDS011;6566;57.702;11.984;2022-11-20T05:10:08;1.85;;;1.70;;
13002;SDS011;6566;57.702;11.984;2022-11-20T05:12:34;3.08;;;1.65;;
13002;SDS011;6566;57.702;11.984;2022-11-20T05:14:59;2.03;;;1.48;;
13002;SDS011;6566;57.702;11.984;2022-11-20T05:17:24;3.97;;;1.60;;
13002;SDS011;6566;57.702;11.984;2022-11-20T05:19:50;3.47;;;1.50;;
13002;SDS011;6566;57.702;11.984;2022-11-20T05:22:15;1.95;;;1.60;;
13002;SDS011;6566;57.702;11.984;2022-11-20T05:24:40;2.38;;;1.88;;
13002;SDS011;6566;57.702;11.984;2022-11-20T05:27:05;1.75;;;1.58;;
13002;SDS011;6566;57.702;11.984;2022-11-20T05:29:31;2.42;;;1.70;;
13002;SDS011;6566;57.702;11.984;2022-11-20T05:31:56;2.05;;;1.48;;
13002;SDS011;6566;57.702;11.984;2022-11-20T05:34:21;2.63;;;1.90;;
13002;SDS011;6566;57.702;11.984;2022-11-20T05:36:46;2.38;;;1.70;;
13002;SDS011;6566;57.702;11.984;2022-11-20T05:39:12;2.75;;;1.80;;
13002;SDS011;6566;57.702;11.984;2022-11-20T05:41:37;1.50;;;1.40;;
13002;SDS011;6566;57.702;11.984;2022-11-20T05:44:02;1.70;;;1.60;;
13002;SDS011;6566;57.702;11.984;2022-11-20T05:46:28;3.45;;;1.83;;
13002;SDS011;6566;57.702;11.984;2022-11-20T05:48:53;2.15;;;1.65;;
13002;SDS011;6566;57.702;11.984;2022-11-20T05:51:19;3.13;;;1.63;;
13002;SDS011;6566;57.702;11.984;2022-11-20T05:53:44;1.95;;;1.73;;
13002;SDS011;6566;57.702;11.984;2022-11-20T05:56:10;1.67;;;1.45;;
13002;SDS011;6566;57.702;11.984;2022-11-20T05:58:36;1.92;;;1.45;;
13002;SDS011;6566;57.702;11.984;2022-11-20T06:03:29;1.45;;;1.30;;
13002;SDS011;6566;57.702;11.984;2022-11-20T06:05:55;1.85;;;1.52;;
13002;SDS011;6566;57.702;11.984;2022-11-20T06:08:20;2.53;;;1.85;;
13002;SDS011;6566;57.702;11.984;2022-11-20T06:10:45;2.42;;;1.63;;
13002;SDS011;6566;57.702;11.984;2022-11-20T06:13:10;2.25;;;1.58;;
13002;SDS011;6566;57.702;11.984;2022-11-20T06:15:36;2.50;;;1.55;;
13002;SDS011;6566;57.702;11.984;2022-11-20T06:18:01;1.70;;;1.60;;
13002;SDS011;6566;57.702;11.984;2022-11-20T06:20:26;2.97;;;1.50;;
13002;SDS011;6566;57.702;11.984;2022-11-20T06:22:52;3.35;;;1.85;;
13002;SDS011;6566;57.702;11.984;2022-11-20T06:25:17;3.80;;;1.80;;
13002;SDS011;6566;57.702;11.984;2022-11-20T06:27:42;2.72;;;2.08;;
13002;SDS011;6566;57.702;11.984;2022-11-20T06:30:08;2.92;;;2.00;;
13002;SDS011;6566;57.702;11.984;2022-11-20T06:32:33;1.67;;;1.50;;
13002;SDS011;6566;57.702;11.984;2022-11-20T06:34:58;3.55;;;1.50;;
13002;SDS011;6566;57.702;11.984;2022-11-20T06:37:24;1.50;;;1.40;;
13002;SDS011;6566;57.702;11.984;2022-11-20T06:39:49;1.73;;;1.63;;
13002;SDS011;6566;57.702;11.984;2022-11-20T06:42:14;4.68;;;1.55;;
13002;SDS011;6566;57.702;11.984;2022-11-20T06:44:39;1.90;;;1.73;;
13002;SDS011;6566;57.702;11.984;2022-11-20T06:47:05;1.63;;;1.33;;
13002;SDS011;6566;57.702;11.984;2022-11-20T06:49:30;2.03;;;1.60;;
13002;SDS011;6566;57.702;11.984;2022-11-20T06:51:55;2.03;;;1.70;;
13002;SDS011;6566;57.702;11.984;2022-11-20T06:54:20;2.75;;;1.58;;
13002;SDS011;6566;57.702;11.984;2022-11-20T06:56:46;2.25;;;1.98;;
13002;SDS011;6566;57.702;11.984;2022-11-20T06:59:12;2.78;;;1.90;;
13002;SDS011;6566;57.702;11.984;2022-11-20T07:01:37;1.98;;;1.33;;
13002;SDS011;6566;57.702;11.984;2022-11-20T07:04:02;1.80;;;1.65;;
13002;SDS011;6566;57.702;11.984;2022-11-20T07:06:28;1.50;;;1.40;;
13002;SDS011;6566;57.702;11.984;2022-11-20T07:08:53;1.92;;;1.40;;
13002;SDS011;6566;57.702;11.984;2022-11-20T07:11:18;2.25;;;1.52;;
13002;SDS011;6566;57.702;11.984;2022-11-20T07:13:43;1.92;;;1.50;;
13002;SDS011;6566;57.702;11.984;2022-11-20T07:16:09;2.67;;;1.77;;
13002;SDS011;6566;57.702;11.984;2022-11-20T07:18:34;2.92;;;1.55;;
13002;SDS011;6566;57.702;11.984;2022-11-20T07:21:03;2.50;;;1.98;;
13002;SDS011;6566;57.702;11.984;2022-11-20T07:23:29;2.92;;;2.60;;
13002;SDS011;6566;57.702;11.984;2022-11-20T07:25:54;1.65;;;1.55;;
13002;SDS011;6566;57.702;11.984;2022-11-20T07:28:19;3.55;;;1.85;;
13002;SDS011;6566;57.702;11.984;2022-11-20T07:30:51;3.30;;;1.65;;
13002;SDS011;6566;57.702;11.984;2022-11-20T07:33:17;2.40;;;1.63;;
13002;SDS011;6566;57.702;11.984;2022-11-20T07:35:42;4.10;;;1.73;;
13002;SDS011;6566;57.702;11.984;2022-11-20T07:38:07;1.52;;;1.42;;
13002;SDS011;6566;57.702;11.984;2022-11-20T07:40:33;1.95;;;1.40;;
13002;SDS011;6566;57.702;11.984;2022-11-20T07:42:58;2.50;;;1.95;;
13002;SDS011;6566;57.702;11.984;2022-11-20T07:45:23;1.63;;;1.20;;
13002;SDS011;6566;57.702;11.984;2022-11-20T07:47:49;1.30;;;1.20;;
13002;SDS011;6566;57.702;11.984;2022-11-20T07:50:14;2.83;;;1.48;;
13002;SDS011;6566;57.702;11.984;2022-11-20T07:52:40;1.15;;;1.10;;
13002;SDS011;6566;57.702;11.984;2022-11-20T07:55:05;1.88;;;1.50;;
13002;SDS011;6566;57.702;11.984;2022-11-20T07:57:31;1.40;;;1.30;;
13002;SDS011;6566;57.702;11.984;2022-11-20T07:59:56;1.40;;;1.30;;
13002;SDS011;6566;57.702;11.984;2022-11-20T08:02:21;2.15;;;1.30;;
13002;SDS011;6566;57.702;11.984;2022-11-20T08:04:47;1.52;;;1.20;;
13002;SDS011;6566;57.702;11.984;2022-11-20T08:07:12;2.05;;;1.50;;
13002;SDS011;6566;57.702;11.984;2022-11-20T08:09:37;1.40;;;1.30;;
13002;SDS011;6566;57.702;11.984;2022-11-20T08:12:03;2.60;;;1.77;;
13002;SDS011;6566;57.702;11.984;2022-11-20T08:14:46;3.03;;;1.73;;
13002;SDS011;6566;57.702;11.984;2022-11-20T08:17:11;1.42;;;1.33;;
13002;SDS011;6566;57.702;11.984;2022-11-20T08:19:37;1.30;;;1.20;;
13002;SDS011;6566;57.702;11.984;2022-11-20T08:22:02;1.58;;;1.40;;
13002;SDS011;6566;57.702;11.984;2022-11-20T08:24:27;3.40;;;1.50;;
13002;SDS011;6566;57.702;11.984;2022-11-20T08:26:53;1.40;;;1.30;;
13002;SDS011;6566;57.702;11.984;2022-11-20T08:29:18;2.42;;;1.30;;
13002;SDS011;6566;57.702;11.984;2022-11-20T08:31:43;1.33;;;1.23;;
13002;SDS011;6566;57.702;11.984;2022-11-20T08:34:09;3.05;;;1.30;;
13002;SDS011;6566;57.702;11.984;2022-11-20T08:36:34;1.65;;;1.50;;
13002;SDS011;6566;57.702;11.984;2022-11-20T08:39:00;3.05;;;1.55;;
13002;SDS011;6566;57.702;11.984;2022-11-20T08:41:25;2.05;;;1.27;;
13002;SDS011;6566;57.702;11.984;2022-11-20T08:43:59;2.70;;;1.40;;
13002;SDS011;6566;57.702;11.984;2022-11-20T08:46:25;1.85;;;1.30;;
13002;SDS011;6566;57.702;11.984;2022-11-20T08:48:51;1.92;;;1.30;;
13002;SDS011;6566;57.702;11.984;2022-11-20T08:51:16;1.70;;;1.30;;
13002;SDS011;6566;57.702;11.984;2022-11-20T08:53:41;1.90;;;1.27;;
13002;SDS011;6566;57.702;11.984;2022-11-20T08:56:07;3.95;;;1.30;;
13002;SDS011;6566;57.702;11.984;2022-11-20T08:58:32;1.50;;;1.40;;
13002;SDS011;6566;57.702;11.984;2022-11-20T09:00:57;4.70;;;1.38;;
13002;SDS011;6566;57.702;11.984;2022-11-20T09:03:23;1.67;;;1.40;;
13002;SDS011;6566;57.702;11.984;2022-11-20T09:05:48;1.63;;;1.20;;
13002;SDS011;6566;57.702;11.984;2022-11-20T09:08:13;1.92;;;1.60;;
13002;SDS011;6566;57.702;11.984;2022-11-20T09:10:39;2.22;;;1.50;;
13002;SDS011;6566;57.702;11.984;2022-11-20T09:13:07;1.52;;;1.10;;
13002;SDS011;6566;57.702;11.984;2022-11-20T09:15:32;3.78;;;1.40;;
13002;SDS011;6566;57.702;11.984;2022-11-20T09:17:59;3.35;;;1.70;;
13002;SDS011;6566;57.702;11.984;2022-11-20T09:20:25;1.75;;;1.38;;
13002;SDS011;6566;57.702;11.984;2022-11-20T09:22:50;1.98;;;1.27;;
13002;SDS011;6566;57.702;11.984;2022-11-20T09:25:16;1.40;;;1.20;;
13002;SDS011;6566;57.702;11.984;2022-11-20T09:27:41;2.10;;;1.45;;
13002;SDS011;6566;57.702;11.984;2022-11-20T09:30:08;1.60;;;1.50;;
13002;SDS011;6566;57.702;11.984;2022-11-20T09:32:34;2.55;;;1.20;;
13002;SDS011;6566;57.702;11.984;2022-11-20T09:34:59;2.63;;;1.50;;
13002;SDS011;6566;57.702;11.984;2022-11-20T09:37:24;1.48;;;1.05;;
13002;SDS011;6566;57.702;11.984;2022-11-20T09:39:49;2.20;;;1.10;;
13002;SDS011;6566;57.702;11.984;2022-11-20T09:54:34;1.20;;;1.10;;
13002;SDS011;6566;57.702;11.984;2022-11-20T09:57:01;3.25;;;1.13;;
13002;SDS011;6566;57.702;11.984;2022-11-20T09:59:41;0.85;;;0.85;;
13002;SDS011;6566;57.702;11.984;2022-11-20T10:04:49;2.13;;;1.10;;
13002;SDS011;6566;57.702;11.984;2022-11-20T10:07:18;1.38;;;1.00;;
13002;SDS011;6566;57.702;11.984;2022-11-20T10:09:55;1.98;;;1.00;;
13002;SDS011;6566;57.702;11.984;2022-11-20T10:12:31;2.72;;;0.95;;
13002;SDS011;6566;57.702;11.984;2022-11-20T10:29:41;1.10;;;1.00;;
13002;SDS011;6566;57.702;11.984;2022-11-20T10:32:15;1.02;;;0.70;;
13002;SDS011;6566;57.702;11.984;2022-11-20T10:37:09;0.95;;;0.80;;
13002;SDS011;6566;57.702;11.984;2022-11-20T10:39:46;1.05;;;0.95;;
13002;SDS011;6566;57.702;11.984;2022-11-20T10:42:17;1.50;;;1.10;;
13002;SDS011;6566;57.702;11.984;2022-11-20T10:44:49;0.80;;;0.80;;
13002;SDS011;6566;57.702;11.984;2022-11-20T10:47:27;1.10;;;1.00;;
13002;SDS011;6566;57.702;11.984;2022-11-20T10:49:53;1.48;;;0.73;;
13002;SDS011;6566;57.702;11.984;2022-11-20T10:58:01;2.08;;;0.85;;
13002;SDS011;6566;57.702;11.984;2022-11-20T11:00:31;0.80;;;0.80;;
13002;SDS011;6566;57.702;11.984;2022-11-20T11:02:57;2.17;;;0.82;;
13002;SDS011;6566;57.702;11.984;2022-11-20T11:05:36;1.63;;;0.75;;
13002;SDS011;6566;57.702;11.984;2022-11-20T11:08:02;1.00;;;0.90;;
13002;SDS011;6566;57.702;11.984;2022-11-20T11:10:48;3.35;;;0.63;;
13002;SDS011;6566;57.702;11.984;2022-11-20T11:13:23;2.25;;;0.80;;
13002;SDS011;6566;57.702;11.984;2022-11-20T11:15:49;0.70;;;0.60;;
13002;SDS011;6566;57.702;11.984;2022-11-20T11:18:24;0.82;;;0.70;;
13002;SDS011;6566;57.702;11.984;2022-11-20T11:20:50;1.58;;;0.82;;
13002;SDS011;6566;57.702;11.984;2022-11-20T11:23:31;0.70;;;0.70;;
13002;SDS011;6566;57.702;11.984;2022-11-20T11:25:57;1.20;;;0.82;;
13002;SDS011;6566;57.702;11.984;2022-11-20T11:28:23;0.70;;;0.70;;
13002;SDS011;6566;57.702;11.984;2022-11-20T11:30:51;2.05;;;0.90;;
13002;SDS011;6566;57.702;11.984;2022-11-20T11:33:27;1.02;;;0.60;;
13002;SDS011;6566;57.702;11.984;2022-11-20T11:35:53;0.93;;;0.73;;
13002;SDS011;6566;57.702;11.984;2022-11-20T11:38:43;1.85;;;0.98;;
13002;SDS011;6566;57.702;11.984;2022-11-20T11:41:12;1.60;;;1.00;;
13002;SDS011;6566;57.702;11.984;2022-11-20T11:43:40;1.52;;;1.10;;
13002;SDS011;6566;57.702;11.984;2022-11-20T11:46:33;3.08;;;0.90;;
13002;SDS011;6566;57.702;11.984;2022-11-20T11:49:00;1.40;;;1.10;;
13002;SDS011;6566;57.702;11.984;2022-11-20T11:54:17;2.35;;;1.30;;
13002;SDS011;6566;57.702;11.984;2022-11-20T11:56:43;2.95;;;1.13;;
13002;SDS011;6566;57.702;11.984;2022-11-20T11:59:11;1.48;;;1.10;;
13002;SDS011;6566;57.702;11.984;2022-11-20T12:04:44;3.10;;;1.10;;
13002;SDS011;6566;57.702;11.984;2022-11-20T12:07:15;1.00;;;0.90;;
13002;SDS011;6566;57.702;11.984;2022-11-20T12:09:43;1.10;;;1.00;;
13002;SDS011;6566;57.702;11.984;2022-11-20T12:12:18;0.80;;;0.80;;
13002;SDS011;6566;57.702;11.984;2022-11-20T12:14:46;4.45;;;1.20;;
13002;SDS011;6566;57.702;11.984;2022-11-20T12:17:12;1.65;;;1.27;;
13002;SDS011;6566;57.702;11.984;2022-11-20T12:19:38;1.55;;;1.00;;
13002;SDS011;6566;57.702;11.984;2022-11-20T12:22:13;1.80;;;1.17;;
13002;SDS011;6566;57.702;11.984;2022-11-20T12:29:55;0.80;;;0.80;;
13002;SDS011;6566;57.702;11.984;2022-11-20T12:37:43;1.52;;;1.02;;
13002;SDS011;6566;57.702;11.984;2022-11-20T12:45:35;1.60;;;0.98;;
13002;SDS011;6566;57.702;11.984;2022-11-20T13:00:47;4.32;;;0.85;;
13002;SDS011;6566;57.702;11.984;2022-11-20T13:05:55;1.77;;;1.02;;
13002;SDS011;6566;57.702;11.984;2022-11-20T13:08:25;1.90;;;0.80;;
13002;SDS011;6566;57.702;11.984;2022-11-20T13:11:05;2.00;;;1.20;;
13002;SDS011;6566;57.702;11.984;2022-11-20T13:18:55;1.35;;;1.00;;
13002;SDS011;6566;57.702;11.984;2022-11-20T13:21:22;1.27;;;0.95;;
13002;SDS011;6566;57.702;11.984;2022-11-20T13:23:48;1.17;;;0.82;;
13002;SDS011;6566;57.702;11.984;2022-11-20T13:26:17;2.60;;;1.00;;
13002;SDS011;6566;57.702;11.984;2022-11-20T13:28:45;3.25;;;0.95;;
13002;SDS011;6566;57.702;11.984;2022-11-20T13:31:32;1.20;;;0.90;;
13002;SDS011;6566;57.702;11.984;2022-11-20T13:33:56;1.38;;;1.05;;
13002;SDS011;6566;57.702;11.984;2022-11-20T13:36:23;1.17;;;0.98;;
13002;SDS011;6566;57.702;11.984;2022-11-20T13:38:50;1.20;;;1.10;;
13002;SDS011;6566;57.702;11.984;2022-11-20T13:43:54;3.45;;;1.23;;
13002;SDS011;6566;57.702;11.984;2022-11-20T13:46:19;4.13;;;1.38;;
13002;SDS011;6566;57.702;11.984;2022-11-20T13:48:49;1.77;;;1.40;;
13002;SDS011;6566;57.702;11.984;2022-11-20T13:51:25;2.35;;;1.30;;
13002;SDS011;6566;57.702;11.984;2022-11-20T13:56:24;1.40;;;1.30;;
13002;SDS011;6566;57.702;11.984;2022-11-20T14:01:23;1.25;;;0.85;;
13002;SDS011;6566;57.702;11.984;2022-11-20T14:03:48;1.20;;;0.90;;
13002;SDS011;6566;57.702;11.984;2022-11-20T14:06:15;2.50;;;1.10;;
13002;SDS011;6566;57.702;11.984;2022-11-20T14:08:48;0.90;;;0.85;;
13002;SDS011;6566;57.702;11.984;2022-11-20T14:11:18;1.05;;;0.82;;
13002;SDS011;6566;57.702;11.984;2022-11-20T14:13:51;3.15;;;0.90;;
13002;SDS011;6566;57.702;11.984;2022-11-20T14:16:19;1.20;;;1.10;;
13002;SDS011;6566;57.702;11.984;2022-11-20T14:18:44;1.20;;;0.85;;
13002;SDS011;6566;57.702;11.984;2022-11-20T14:21:10;2.40;;;0.82;;
13002;SDS011;6566;57.702;11.984;2022-11-20T14:23:35;1.60;;;0.90;;
13002;SDS011;6566;57.702;11.984;2022-11-20T14:26:00;1.13;;;0.77;;
13002;SDS011;6566;57.702;11.984;2022-11-20T14:28:26;1.13;;;1.00;;
13002;SDS011;6566;57.702;11.984;2022-11-20T14:30:52;0.90;;;0.73;;
13002;SDS011;6566;57.702;11.984;2022-11-20T14:33:17;1.77;;;0.75;;
13002;SDS011;6566;57.702;11.984;2022-11-20T14:35:54;0.80;;;0.80;;
13002;SDS011;6566;57.702;11.984;2022-11-20T14:38:22;2.40;;;0.98;;
13002;SDS011;6566;57.702;11.984;2022-11-20T14:40:48;1.45;;;0.73;;
13002;SDS011;6566;57.702;11.984;2022-11-20T14:43:24;0.70;;;0.60;;
13002;SDS011;6566;57.702;11.984;2022-11-20T16:23:28;2.15;;;1.30;;
13002;SDS011;6566;57.702;11.984;2022-11-20T16:25:55;1.27;;;1.15;;
13002;SDS011;6566;57.702;11.984;2022-11-20T16:28:22;2.72;;;0.90;;
13002;SDS011;6566;57.702;11.984;2022-11-20T16:30:48;1.85;;;0.98;;
13002;SDS011;6566;57.702;11.984;2022-11-20T16:33:16;1.92;;;1.00;;
13002;SDS011;6566;57.702;11.984;2022-11-20T16:35:43;1.08;;;0.80;;
13002;SDS011;6566;57.702;11.984;2022-11-20T16:38:09;1.88;;;1.00;;
13002;SDS011;6566;57.702;11.984;2022-11-20T16:40:36;1.85;;;1.10;;
13002;SDS011;6566;57.702;11.984;2022-11-20T16:43:12;2.90;;;1.30;;
13002;SDS011;6566;57.702;11.984;2022-11-20T16:45:43;3.03;;;1.60;;
13002;SDS011;6566;57.702;11.984;2022-11-20T16:48:14;5.72;;;2.33;;
13002;SDS011;6566;57.702;11.984;2022-11-20T16:50:44;1.60;;;1.10;;
13002;SDS011;6566;57.702;11.984;2022-11-20T16:53:10;2.72;;;1.73;;
13002;SDS011;6566;57.702;11.984;2022-11-20T16:55:37;2.85;;;1.65;;
13002;SDS011;6566;57.702;11.984;2022-11-20T16:58:04;3.05;;;1.63;;
13002;SDS011;6566;57.702;11.984;2022-11-20T17:00:30;2.25;;;1.48;;
13002;SDS011;6566;57.702;11.984;2022-11-20T17:02:55;2.28;;;1.35;;
13002;SDS011;6566;57.702;11.984;2022-11-20T17:05:22;1.80;;;1.33;;
13002;SDS011;6566;57.702;11.984;2022-11-20T17:07:48;1.88;;;1.15;;
13002;SDS011;6566;57.702;11.984;2022-11-20T17:10:15;2.10;;;1.20;;
13002;SDS011;6566;57.702;11.984;2022-11-20T17:12:42;1.58;;;1.08;;
13002;SDS011;6566;57.702;11.984;2022-11-20T17:15:08;2.42;;;1.20;;
13002;SDS011;6566;57.702;11.984;2022-11-20T17:17:38;1.77;;;1.30;;
13002;SDS011;6566;57.702;11.984;2022-11-20T17:20:03;1.90;;;1.20;;
13002;SDS011;6566;57.702;11.984;2022-11-20T17:22:30;2.00;;;1.30;;
13002;SDS011;6566;57.702;11.984;2022-11-20T17:24:56;1.63;;;1.15;;
13002;SDS011;6566;57.702;11.984;2022-11-20T17:27:23;2.03;;;1.60;;
13002;SDS011;6566;57.702;11.984;2022-11-20T17:29:50;2.47;;;1.50;;
13002;SDS011;6566;57.702;11.984;2022-11-20T17:32:16;2.15;;;1.30;;
13002;SDS011;6566;57.702;11.984;2022-11-20T17:34:43;1.90;;;1.15;;
13002;SDS011;6566;57.702;11.984;2022-11-20T17:37:08;1.70;;;1.25;;
13002;SDS011;6566;57.702;11.984;2022-11-20T17:39:34;1.73;;;1.20;;
13002;SDS011;6566;57.702;11.984;2022-11-20T17:42:02;2.97;;;1.55;;
13002;SDS011;6566;57.702;11.984;2022-11-20T17:44:47;2.72;;;1.30;;
13002;SDS011;6566;57.702;11.984;2022-11-20T17:47:13;1.38;;;1.05;;
13002;SDS011;6566;57.702;11.984;2022-11-20T17:49:40;1.55;;;1.05;;
13002;SDS011;6566;57.702;11.984;2022-11-20T17:52:06;1.80;;;1.13;;
13002;SDS011;6566;57.702;11.984;2022-11-20T17:54:33;2.90;;;1.10;;
13002;SDS011;6566;57.702;11.984;2022-11-20T17:56:59;0.93;;;0.82;;
13002;SDS011;6566;57.702;11.984;2022-11-20T17:59:44;1.27;;;0.98;;
13002;SDS011;6566;57.702;11.984;2022-11-20T18:02:11;2.28;;;1.20;;
13002;SDS011;6566;57.702;11.984;2022-11-20T18:04:38;1.98;;;0.77;;